Time;durP1;ratioP1;P1;durP2;ratioP2;P2;SDS_P1;SDS_P2;PMS_P1;PMS_P2;Temp;Humidity;BMP_temperature;BMP_pressure;BME280_temperature;BME280_humidity;BME280_pressure;Samples;Min_cycle;Max_cycle;Signal;HPM_P1;HPM_P2
2022/04/27 00:01:09;;;;;;;28.88;10.90;;;;;;;10.41;60.47;98769.63;5093293;28;20048;-50
2022/04/27 00:03:35;;;;;;;16.77;7.15;;;;;;;10.49;61.05;98772.88;5093158;28;20042;-50
2022/04/27 00:06:00;;;;;;;15.73;5.50;;;;;;;10.61;60.96;98772.31;5093108;28;20494;-50
2022/04/27 00:08:26;;;;;;;8.60;5.28;;;;;;;10.61;60.35;98769.69;5093081;28;20410;-50
2022/04/27 00:10:52;;;;;;;12.82;5.43;;;;;;;10.38;60.70;98770.78;5093034;28;20087;-50
2022/04/27 00:13:17;;;;;;;11.07;5.10;;;;;;;10.20;61.32;98769.50;5091512;28;20020;-50
2022/04/27 00:15:43;;;;;;;11.18;6.10;;;;;;;10.13;61.84;98776.53;5092971;28;20084;-51
2022/04/27 00:18:09;;;;;;;19.70;8.07;;;;;;;10.15;61.66;98776.34;5091644;28;20066;-51
2022/04/27 00:20:35;;;;;;;9.55;5.43;;;;;;;10.13;61.78;98775.72;5091520;28;20497;-50
2022/04/27 00:23:01;;;;;;;12.15;5.60;;;;;;;10.00;62.02;98771.25;5091555;28;20024;-50
2022/04/27 00:25:26;;;;;;;13.85;5.63;;;;;;;9.97;62.28;98771.63;5092745;28;20032;-51
2022/04/27 00:27:52;;;;;;;12.38;5.88;;;;;;;9.89;62.74;98777.81;5092801;28;20020;-51
2022/04/27 00:30:18;;;;;;;9.52;5.53;;;;;;;9.78;62.58;98775.75;5092682;28;20024;-50
2022/04/27 00:32:44;;;;;;;6.70;5.72;;;;;;;9.68;62.74;98783.97;5092659;28;20034;-50
2022/04/27 00:35:09;;;;;;;14.00;9.20;;;;;;;9.60;63.89;98784.91;5091204;28;20063;-50
2022/04/27 00:37:35;;;;;;;9.75;5.57;;;;;;;9.55;63.81;98776.81;5092373;28;20036;-50
2022/04/27 00:40:01;;;;;;;7.60;5.20;;;;;;;9.47;63.57;98779.56;5092485;28;20020;-50
2022/04/27 00:42:27;;;;;;;13.73;6.30;;;;;;;9.46;63.67;98785.03;5092549;28;20450;-51
2022/04/27 00:44:53;;;;;;;11.00;6.05;;;;;;;9.36;63.86;98783.53;5091153;28;20031;-50
2022/04/27 00:47:19;;;;;;;10.75;5.60;;;;;;;9.34;64.14;98782.91;5092390;28;20103;-50
2022/04/27 00:49:52;;;;;;;10.60;5.88;;;;;;;9.26;64.74;98783.06;5091079;28;20020;-50
2022/04/27 00:52:19;;;;;;;11.38;7.18;;;;;;;9.23;64.21;98786.03;5090955;28;20105;-50
2022/04/27 00:54:51;;;;;;;21.33;6.63;;;;;;;9.15;64.40;98783.56;5090921;28;20031;-50
2022/04/27 00:57:18;;;;;;;10.52;5.80;;;;;;;9.12;65.28;98786.56;5092242;28;20039;-50
2022/04/27 00:59:46;;;;;;;12.80;5.78;;;;;;;9.29;64.67;98789.72;5091866;28;20024;-50
2022/04/27 01:02:11;;;;;;;8.48;6.10;;;;;;;9.34;64.76;98787.34;5092165;28;20032;-51
2022/04/27 01:04:38;;;;;;;12.05;6.07;;;;;;;9.22;64.29;98781.81;5092229;28;20023;-50
2022/04/27 01:07:05;;;;;;;12.82;6.20;;;;;;;9.18;64.48;98784.00;5092082;28;20056;-50
2022/04/27 01:09:31;;;;;;;21.23;7.55;;;;;;;8.99;64.39;98788.06;5092147;28;20066;-49
2022/04/27 01:11:58;;;;;;;12.20;6.03;;;;;;;8.93;65.14;98787.97;5090799;28;20410;-50
2022/04/27 01:14:24;;;;;;;9.52;6.03;;;;;;;8.99;65.35;98793.28;5092026;28;20103;-50
2022/04/27 01:16:54;;;;;;;13.63;5.88;;;;;;;9.19;65.51;98788.25;5090690;28;20027;-50
2022/04/27 01:19:26;;;;;;;9.00;6.15;;;;;;;9.35;64.84;98789.75;5090673;28;20023;-50
2022/04/27 01:21:55;;;;;;;11.55;6.05;;;;;;;9.48;64.52;98789.06;5091995;28;20039;-50
2022/04/27 01:24:26;;;;;;;20.35;8.25;;;;;;;9.52;64.08;98792.13;5091937;28;20052;-50
2022/04/27 01:26:53;;;;;;;12.73;5.45;;;;;;;9.60;64.10;98790.16;5091982;28;20040;-51
2022/04/27 01:29:22;;;;;;;18.42;8.25;;;;;;;9.57;63.98;98790.53;5091908;28;20398;-50
2022/04/27 01:31:47;;;;;;;11.52;5.97;;;;;;;9.69;63.76;98788.19;5091819;28;20524;-51
2022/04/27 01:34:13;;;;;;;9.27;6.18;;;;;;;9.59;63.16;98785.09;5091731;28;20020;-50
2022/04/27 01:36:39;;;;;;;12.75;6.32;;;;;;;9.51;63.60;98791.28;5090485;28;20569;-51
2022/04/27 01:39:06;;;;;;;8.00;5.55;;;;;;;9.50;63.62;98788.88;5090254;28;20134;-51
2022/04/27 01:41:33;;;;;;;18.90;7.85;;;;;;;9.43;63.78;98795.88;5090402;28;20077;-51
2022/04/27 01:43:59;;;;;;;9.10;5.70;;;;;;;9.43;63.46;98796.66;5091652;28;20059;-50
2022/04/27 01:46:26;;;;;;;14.75;8.60;;;;;;;9.27;64.29;98787.28;5091726;28;20052;-50
2022/04/27 01:48:53;;;;;;;9.57;5.50;;;;;;;9.25;64.33;98797.13;5091661;28;20020;-51
2022/04/27 01:51:19;;;;;;;18.45;8.05;;;;;;;9.20;64.60;98795.09;5090353;28;20389;-50
2022/04/27 01:56:31;;;;;;;9.57;6.15;;;;;;;9.31;63.95;98795.56;5091895;28;20028;-50
2022/04/27 01:58:57;;;;;;;11.88;7.00;;;;;;;9.02;63.98;98807.00;5090282;28;20028;-50
2022/04/27 02:01:25;;;;;;;12.73;6.80;;;;;;;8.80;64.90;98807.00;5091574;28;20020;-51
2022/04/27 02:03:51;;;;;;;21.35;8.40;;;;;;;8.71;65.40;98808.09;5091552;28;20107;-50
2022/04/27 02:06:19;;;;;;;12.10;6.38;;;;;;;8.79;65.81;98810.59;5091453;28;20020;-51
2022/04/27 02:08:46;;;;;;;11.60;6.72;;;;;;;8.88;64.99;98814.72;5091500;28;20064;-50
2022/04/27 02:11:12;;;;;;;14.48;7.45;;;;;;;8.96;65.27;98806.75;5092998;28;20516;-50
2022/04/27 02:13:38;;;;;;;8.43;5.72;;;;;;;9.12;65.06;98805.69;5095277;28;20016;-51
2022/04/27 02:16:04;;;;;;;13.35;5.82;;;;;;;9.18;64.30;98806.75;5093964;28;20051;-50
2022/04/27 02:18:29;;;;;;;12.15;6.53;;;;;;;9.23;64.21;98800.94;5095293;28;20502;-50
2022/04/27 02:20:58;;;;;;;12.18;6.20;;;;;;;9.21;64.23;98801.13;5095219;28;20072;-50
2022/04/27 02:23:23;;;;;;;7.35;5.40;;;;;;;9.11;64.34;98813.72;5095161;28;20028;-51
2022/04/27 02:25:50;;;;;;;12.02;5.78;;;;;;;9.02;64.15;98813.03;5095079;28;20073;-51
2022/04/27 02:28:17;;;;;;;9.43;5.65;;;;;;;8.99;64.83;98809.00;5094989;28;20028;-50
2022/04/27 02:30:42;;;;;;;16.08;6.90;;;;;;;8.92;64.87;98810.72;5093727;28;20436;-50
2022/04/27 02:33:08;;;;;;;11.02;6.72;;;;;;;8.85;64.44;98809.84;5093587;28;20024;-50
2022/04/27 02:35:34;;;;;;;14.10;6.57;;;;;;;8.74;64.80;98821.63;5094902;28;20466;-50
2022/04/27 02:38:00;;;;;;;10.57;6.30;;;;;;;8.67;65.04;98814.69;5094684;28;20044;-50
2022/04/27 02:40:25;;;;;;;7.60;6.40;;;;;;;8.58;65.54;98820.03;5094805;28;20080;-50
2022/04/27 02:42:52;;;;;;;13.82;6.07;;;;;;;8.45;65.56;98822.50;5094955;28;20481;-50
2022/04/27 02:45:18;;;;;;;10.90;7.25;;;;;;;8.34;66.26;98821.13;5094759;28;20027;-50
2022/04/27 02:47:44;;;;;;;11.10;6.07;;;;;;;8.33;66.57;98827.38;5093377;28;20076;-50
2022/04/27 02:52:54;;;;;;;13.35;8.02;;;;;;;8.36;66.63;98824.38;5094642;28;20479;-50
2022/04/27 02:55:22;;;;;;;13.75;6.85;;;;;;;8.50;66.00;98822.75;5094469;28;20028;-51
2022/04/27 02:57:48;;;;;;;14.07;7.18;;;;;;;8.60;66.04;98827.69;5094524;28;20443;-50
2022/04/27 03:00:14;;;;;;;12.05;6.60;;;;;;;8.66;65.97;98823.53;5093126;28;20031;-50
2022/04/27 03:02:40;;;;;;;12.63;5.63;;;;;;;8.59;65.63;98829.50;5093408;28;20052;-50
2022/04/27 03:05:06;;;;;;;12.98;9.40;;;;;;;8.78;65.71;98827.31;5094299;28;20039;-50
2022/04/27 03:07:32;;;;;;;8.73;6.78;;;;;;;8.87;65.12;98830.59;5094389;28;20383;-50
2022/04/27 03:09:57;;;;;;;14.93;7.55;;;;;;;8.78;64.76;98822.88;5092953;28;20032;-51
2022/04/27 03:12:23;;;;;;;11.77;6.80;;;;;;;8.74;65.20;98833.91;5092903;28;20028;-49
2022/04/27 03:14:49;;;;;;;11.93;5.75;;;;;;;8.66;64.52;98823.53;5092789;28;20024;-51
2022/04/27 03:17:15;;;;;;;13.43;6.93;;;;;;;8.47;65.29;98838.00;5094102;28;20394;-51
2022/04/27 03:19:41;;;;;;;15.75;7.45;;;;;;;8.27;65.82;98835.09;5094092;28;20024;-51
2022/04/27 03:22:08;;;;;;;8.10;6.88;;;;;;;8.13;66.22;98839.34;5093700;28;20016;-50
2022/04/27 03:24:34;;;;;;;18.88;8.70;;;;;;;8.01;66.83;98836.38;5093991;28;20118;-50
2022/04/27 03:27:00;;;;;;;15.40;7.35;;;;;;;8.12;67.21;98833.31;5093901;28;20107;-50
2022/04/27 03:29:26;;;;;;;13.68;6.50;;;;;;;8.29;66.59;98826.09;5092622;28;20115;-49
2022/04/27 03:31:52;;;;;;;13.02;6.70;;;;;;;8.14;65.92;98835.75;5093867;28;20020;-51
2022/04/27 03:34:17;;;;;;;6.85;6.15;;;;;;;8.10;66.38;98843.13;5093718;28;20409;-50
2022/04/27 03:36:43;;;;;;;13.65;6.75;;;;;;;8.12;66.84;98840.34;5093791;28;20016;-50
2022/04/27 03:39:09;;;;;;;15.70;6.85;;;;;;;8.21;66.63;98841.91;5093681;28;20055;-50
2022/04/27 03:41:34;;;;;;;14.45;6.50;;;;;;;8.20;66.01;98848.09;5093599;28;20028;-50
2022/04/27 03:44:00;;;;;;;11.50;6.60;;;;;;;8.15;66.78;98847.84;5093580;28;20031;-50
2022/04/27 03:46:26;;;;;;;10.52;6.20;;;;;;;8.18;66.00;98843.03;5092230;28;20382;-51
2022/04/27 03:48:52;;;;;;;17.25;8.43;;;;;;;8.14;66.11;98846.22;5092178;28;20024;-50
2022/04/27 03:51:17;;;;;;;10.73;6.05;;;;;;;8.13;66.58;98850.63;5093480;28;20032;-50
2022/04/27 03:53:44;;;;;;;18.58;9.43;;;;;;;8.20;66.73;98856.75;5093355;28;20410;-50
2022/04/27 03:56:10;;;;;;;11.63;5.93;;;;;;;8.29;66.15;98851.41;5093308;28;20016;-49
2022/04/27 03:58:36;;;;;;;9.75;6.53;;;;;;;8.22;66.46;98851.34;5093300;28;20502;-50
2022/04/27 04:01:01;;;;;;;20.00;11.98;;;;;;;8.25;66.00;98858.00;5091983;28;20400;-50
2022/04/27 04:03:27;;;;;;;7.82;5.68;;;;;;;8.25;66.19;98855.38;5093261;28;20405;-49
2022/04/27 04:05:53;;;;;;;8.95;5.93;;;;;;;8.19;66.14;98857.75;5091849;28;20025;-50
2022/04/27 04:08:19;;;;;;;14.02;6.40;;;;;;;8.10;66.15;98864.03;5091820;28;20027;-50
2022/04/27 04:10:46;;;;;;;25.98;13.00;;;;;;;8.08;66.23;98860.81;5093124;28;20126;-50
2022/04/27 04:13:12;;;;;;;12.82;6.75;;;;;;;8.07;66.43;98863.59;5093014;28;20016;-50
2022/04/27 04:15:38;;;;;;;13.70;7.07;;;;;;;8.01;66.76;98854.69;5091659;28;20024;-51
2022/04/27 04:18:05;;;;;;;14.25;7.13;;;;;;;8.14;66.58;98865.31;5091599;28;20566;-51
2022/04/27 04:20:31;;;;;;;8.48;6.63;;;;;;;8.10;66.03;98860.63;5092919;28;20084;-50
2022/04/27 04:22:57;;;;;;;8.40;6.25;;;;;;;8.00;66.08;98863.50;5092831;28;20020;-49
2022/04/27 04:30:51;;;;;;;10.43;7.22;;;;;;;7.99;66.13;98872.34;5092982;28;20070;-51
2022/04/27 04:33:17;;;;;;;13.82;6.50;;;;;;;7.92;67.00;98880.06;5091954;28;20044;-50
2022/04/27 04:35:43;;;;;;;14.25;7.97;;;;;;;8.02;66.95;98879.00;5092596;28;20016;-50
2022/04/27 04:38:08;;;;;;;9.95;7.93;;;;;;;8.18;65.94;98879.63;5090957;28;20512;-50
2022/04/27 04:40:34;;;;;;;9.20;5.60;;;;;;;8.27;65.18;98882.16;5092552;28;20028;-50
2022/04/27 04:43:01;;;;;;;11.00;6.63;;;;;;;8.23;65.23;98883.53;5092818;28;20347;-51
2022/04/27 04:45:27;;;;;;;14.10;7.90;;;;;;;8.22;65.69;98887.13;5092433;28;20016;-50
2022/04/27 04:47:53;;;;;;;11.48;7.55;;;;;;;8.37;65.29;98886.16;5092417;28;20074;-51
2022/04/27 04:50:19;;;;;;;13.50;6.72;;;;;;;8.53;65.08;98882.56;5092621;28;20398;-50
2022/04/27 04:52:48;;;;;;;10.50;6.10;;;;;;;8.72;64.68;98888.22;5092311;28;20020;-50
2022/04/27 04:55:13;;;;;;;10.80;6.80;;;;;;;8.77;64.24;98878.84;5092207;28;20016;-51
2022/04/27 04:57:39;;;;;;;10.38;6.65;;;;;;;8.90;63.70;98886.00;5092296;28;20039;-50
2022/04/27 05:00:09;;;;;;;17.25;10.27;;;;;;;9.33;62.66;98880.81;5090930;28;20020;-50
2022/04/27 05:02:35;;;;;;;10.55;5.97;;;;;;;10.14;60.69;98888.31;5092509;28;20059;-51
2022/04/27 05:05:03;;;;;;;7.07;6.35;;;;;;;10.78;58.58;98881.16;5090753;28;20165;-50
2022/04/27 05:07:30;;;;;;;14.10;6.43;;;;;;;11.20;57.44;98887.13;5092136;28;20020;-50
2022/04/27 05:09:56;;;;;;;8.35;6.05;;;;;;;11.56;55.68;98888.59;5090760;28;20020;-50
2022/04/27 05:12:23;;;;;;;9.38;6.25;;;;;;;11.79;54.74;98893.44;5092101;28;20027;-50
2022/04/27 05:14:49;;;;;;;9.65;6.07;;;;;;;12.18;53.75;98887.38;5091911;28;20375;-50
2022/04/27 05:17:15;;;;;;;10.98;5.63;;;;;;;12.82;52.38;98889.38;5091983;28;20020;-50
2022/04/27 05:19:40;;;;;;;10.38;5.22;;;;;;;13.40;50.57;98886.69;5091979;28;20486;-50
2022/04/27 05:22:06;;;;;;;13.48;5.97;;;;;;;13.69;49.65;98893.16;5090625;28;20466;-51
2022/04/27 05:24:32;;;;;;;9.82;5.85;;;;;;;13.81;48.45;98895.09;5090613;28;20583;-51
2022/04/27 05:26:57;;;;;;;14.07;7.57;;;;;;;13.78;49.62;98894.50;5091929;28;20032;-50
2022/04/27 05:32:08;;;;;;;11.88;8.88;;;;;;;13.98;48.78;98889.06;5091914;28;20512;-50
2022/04/27 05:34:35;;;;;;;11.70;6.22;;;;;;;13.77;49.05;98890.22;5092027;28;20024;-51
2022/04/27 05:37:01;;;;;;;13.05;9.82;;;;;;;13.80;49.05;98889.00;5091555;28;20029;-51
2022/04/27 05:39:27;;;;;;;15.82;13.63;;;;;;;14.28;48.47;98884.88;5091879;28;20035;-52
2022/04/27 05:41:53;;;;;;;11.05;6.30;;;;;;;14.82;47.24;98891.19;5090728;28;20016;-51
2022/04/27 05:44:24;;;;;;;12.15;9.43;;;;;;;15.59;45.44;98890.53;5090551;28;20085;-49
2022/04/27 05:46:51;;;;;;;8.40;6.38;;;;;;;16.24;43.64;98887.03;5095889;28;20024;-50
2022/04/27 05:49:17;;;;;;;10.73;6.97;;;;;;;16.71;42.18;98886.13;5095846;28;20024;-49
2022/04/27 05:51:43;;;;;;;12.40;6.47;;;;;;;17.16;40.94;98886.22;5094461;28;20020;-50
2022/04/27 05:54:09;;;;;;;13.48;5.60;;;;;;;17.75;40.40;98888.50;5094438;28;20027;-50
2022/04/27 05:56:35;;;;;;;9.63;6.10;;;;;;;18.39;38.73;98879.34;5095691;28;20378;-51
2022/04/27 05:59:01;;;;;;;10.13;6.25;;;;;;;18.68;38.61;98887.91;5095748;28;20317;-51
2022/04/27 06:01:28;;;;;;;9.65;6.47;;;;;;;18.91;37.51;98894.03;5095676;28;20507;-51
2022/04/27 06:03:54;;;;;;;6.15;5.55;;;;;;;18.68;37.76;98890.56;5095593;28;20520;-51
2022/04/27 06:06:21;;;;;;;10.10;5.90;;;;;;;19.01;37.80;98890.69;5095589;28;20016;-52
2022/04/27 06:08:47;;;;;;;9.95;5.65;;;;;;;19.45;37.16;98879.94;5095554;28;20031;-50
2022/04/27 06:11:13;;;;;;;8.35;6.95;;;;;;;19.65;36.72;98882.75;5095432;28;20405;-50
2022/04/27 06:13:39;;;;;;;14.38;6.10;;;;;;;20.15;36.21;98883.38;5093980;28;20390;-51
2022/04/27 06:16:05;;;;;;;9.38;6.32;;;;;;;20.69;34.59;98883.13;5095365;28;20020;-50
2022/04/27 06:18:31;;;;;;;11.73;6.60;;;;;;;21.02;34.31;98883.72;5093990;28;20520;-51
2022/04/27 06:20:58;;;;;;;10.85;6.82;;;;;;;21.26;33.75;98886.72;5095256;28;20099;-52
2022/04/27 06:23:23;;;;;;;15.40;6.68;;;;;;;21.72;33.66;98885.94;5095230;28;20031;-51
2022/04/27 06:25:50;;;;;;;13.20;7.35;;;;;;;22.57;32.02;98879.88;5095159;28;20027;-52
2022/04/27 06:28:17;;;;;;;10.85;7.25;;;;;;;23.45;30.74;98874.81;5095121;28;20409;-52
2022/04/27 06:30:42;;;;;;;13.85;6.70;;;;;;;24.19;29.92;98875.50;5093677;28;20105;-49
2022/04/27 06:33:09;;;;;;;16.02;8.00;;;;;;;24.84;28.86;98872.28;5093643;28;20560;-51
2022/04/27 06:35:34;;;;;;;11.23;7.45;;;;;;;25.29;28.20;98878.13;5094891;28;20020;-52
2022/04/27 06:38:00;;;;;;;12.30;8.15;;;;;;;25.51;27.41;98880.19;5094637;28;20044;-52
2022/04/27 06:40:27;;;;;;;16.52;7.95;;;;;;;25.58;27.68;98879.81;5094873;28;20024;-51
2022/04/27 06:42:53;;;;;;;10.95;8.70;;;;;;;25.90;27.05;98878.22;5094798;28;20027;-52
2022/04/27 06:45:19;;;;;;;14.52;8.50;;;;;;;25.93;27.07;98874.13;5093460;28;20490;-52
2022/04/27 06:47:44;;;;;;;11.27;8.15;;;;;;;26.27;26.51;98881.81;5094776;28;20020;-52
2022/04/27 06:50:13;;;;;;;14.30;7.97;;;;;;;26.71;26.17;98872.34;5094669;28;20027;-52
2022/04/27 06:52:41;;;;;;;12.38;7.95;;;;;;;26.95;25.58;98873.97;5094632;28;20095;-52
2022/04/27 06:55:09;;;;;;;15.80;8.85;;;;;;;27.08;25.54;98867.72;5094493;28;20490;-51
2022/04/27 06:57:34;;;;;;;12.52;7.80;;;;;;;26.85;26.20;98875.78;5093836;28;20170;-52
2022/04/27 07:00:00;;;;;;;12.35;7.63;;;;;;;27.01;26.12;98865.47;5094552;28;20057;-52
2022/04/27 07:02:28;;;;;;;14.02;9.10;;;;;;;26.93;25.98;98868.09;5094433;28;20020;-52
2022/04/27 07:04:59;;;;;;;12.90;7.93;;;;;;;26.66;26.16;98875.94;5094398;28;20482;-52
2022/04/27 07:07:28;;;;;;;13.88;8.02;;;;;;;26.30;26.89;98884.72;5094393;28;20021;-52
2022/04/27 07:09:56;;;;;;;16.88;8.32;;;;;;;26.00;27.23;98880.72;5092965;28;20063;-52
2022/04/27 07:12:23;;;;;;;12.43;8.50;;;;;;;26.27;27.13;98874.53;5094237;28;20023;-51
2022/04/27 07:14:51;;;;;;;14.70;8.77;;;;;;;26.81;26.04;98882.88;5094112;28;20016;-51
2022/04/27 07:17:19;;;;;;;12.15;8.88;;;;;;;27.20;25.58;98875.28;5094179;28;20103;-51
2022/04/27 07:19:46;;;;;;;9.70;8.57;;;;;;;27.91;24.51;98871.94;5092744;28;20030;-52
2022/04/27 07:22:12;;;;;;;10.00;8.07;;;;;;;28.63;23.80;98868.88;5094059;28;20490;-51
2022/04/27 07:24:38;;;;;;;15.50;8.30;;;;;;;29.28;23.15;98869.09;5093970;28;20490;-51
2022/04/27 07:27:05;;;;;;;12.18;8.13;;;;;;;29.68;22.77;98879.66;5093978;28;20020;-51
2022/04/27 07:29:31;;;;;;;15.88;8.90;;;;;;;30.04;22.24;98878.44;5094010;28;20166;-51
2022/04/27 07:31:59;;;;;;;15.85;8.18;;;;;;;29.96;22.49;98881.97;5093837;28;20020;-53
2022/04/27 07:34:25;;;;;;;10.43;8.40;;;;;;;30.18;21.64;98880.94;5093935;28;20355;-52
2022/04/27 07:36:51;;;;;;;11.05;9.18;;;;;;;30.22;21.78;98876.44;5092153;28;20490;-52
2022/04/27 07:39:17;;;;;;;21.35;8.55;;;;;;;30.56;21.44;98875.50;5094032;28;20028;-53
2022/04/27 07:41:45;;;;;;;16.50;8.85;;;;;;;30.74;21.37;98881.59;5093815;28;20030;-52
2022/04/27 07:44:14;;;;;;;12.75;8.75;;;;;;;31.24;21.11;98878.03;5093667;28;20024;-52
2022/04/27 07:46:40;;;;;;;13.48;8.27;;;;;;;31.26;20.78;98883.91;5092252;28;20028;-52
2022/04/27 07:49:06;;;;;;;16.60;7.63;;;;;;;31.59;20.22;98877.72;5093574;28;20393;-52
2022/04/27 07:51:32;;;;;;;10.35;7.45;;;;;;;31.76;20.07;98882.16;5093776;28;20016;-52
2022/04/27 07:53:57;;;;;;;14.35;7.68;;;;;;;32.11;20.41;98876.34;5093355;28;20024;-53
2022/04/27 07:56:23;;;;;;;15.57;7.30;;;;;;;32.48;19.87;98864.66;5093390;28;20546;-52
2022/04/27 07:58:49;;;;;;;13.00;7.40;;;;;;;32.53;19.07;98861.72;5093378;28;20024;-51
2022/04/27 08:01:15;;;;;;;11.60;7.18;;;;;;;32.18;19.38;98879.28;5093316;28;20020;-52
2022/04/27 08:03:40;;;;;;;11.80;6.85;;;;;;;32.14;20.03;98880.31;5091899;28;20031;-52
2022/04/27 08:06:06;;;;;;;11.38;6.70;;;;;;;32.17;19.34;98871.47;5093176;28;20024;-52
2022/04/27 08:08:32;;;;;;;15.57;7.10;;;;;;;32.09;19.64;98877.81;5092156;28;20482;-52
2022/04/27 08:10:58;;;;;;;9.77;6.13;;;;;;;32.11;19.73;98879.06;5093671;28;20096;-53
2022/04/27 08:13:24;;;;;;;11.52;6.95;;;;;;;31.95;19.75;98878.88;5092964;28;20509;-50
2022/04/27 08:15:50;;;;;;;9.98;6.55;;;;;;;31.70;19.77;98890.88;5091711;28;20111;-53
2022/04/27 08:18:16;;;;;;;11.77;6.93;;;;;;;31.13;19.84;98893.13;5092970;28;20489;-52
2022/04/27 08:23:32;;;;;;;22.77;7.30;;;;;;;30.57;20.51;98889.84;5093175;28;20089;-53
2022/04/27 08:26:00;;;;;;;12.30;7.15;;;;;;;30.40;20.90;98891.50;5092832;28;20039;-52
2022/04/27 08:28:27;;;;;;;11.02;6.97;;;;;;;30.61;20.70;98888.06;5093189;28;20481;-52
2022/04/27 08:31:01;;;;;;;12.13;6.90;;;;;;;30.63;20.69;98896.66;5125814;27;20462;-51
2022/04/27 08:33:27;;;;;;;16.70;6.53;;;;;;;30.45;20.88;98895.97;5109651;28;20032;-50
2022/04/27 08:35:57;;;;;;;11.63;6.35;;;;;;;30.71;20.98;98898.53;5109591;28;20030;-52
2022/04/27 08:38:24;;;;;;;7.90;6.10;;;;;;;31.10;20.53;98896.50;5109602;28;20020;-52
2022/04/27 08:40:50;;;;;;;12.77;6.55;;;;;;;31.51;19.54;98891.38;5109513;28;20389;-51
2022/04/27 08:43:16;;;;;;;14.05;6.28;;;;;;;31.42;19.73;98892.22;5109436;28;20107;-52
2022/04/27 08:45:44;;;;;;;10.85;5.80;;;;;;;31.98;19.70;98897.22;5108057;28;20570;-52
2022/04/27 08:48:11;;;;;;;15.93;6.35;;;;;;;32.36;19.13;98898.88;5109397;28;20367;-51
2022/04/27 08:50:38;;;;;;;15.82;6.35;;;;;;;32.65;18.66;98888.88;5109211;28;20504;-50
2022/04/27 08:53:04;;;;;;;14.20;5.95;;;;;;;32.66;18.34;98889.69;5109313;28;20024;-51
2022/04/27 08:55:30;;;;;;;7.68;6.35;;;;;;;32.56;18.68;98896.38;5109174;28;20089;-52
2022/04/27 08:58:28;;;;;;;14.63;6.57;;;;;;;31.87;19.32;98896.06;5109171;28;20046;-51
2022/04/27 09:00:55;;;;;;;11.82;5.70;;;;;;;31.68;19.35;98895.84;5107730;28;20116;-52
2022/04/27 09:03:38;;;;;;;10.38;5.82;;;;;;;32.49;18.89;98894.19;5109037;28;20027;-51
2022/04/27 09:06:06;;;;;;;7.57;5.80;;;;;;;33.39;17.83;98892.19;5107717;28;20031;-52
2022/04/27 09:08:55;;;;;;;16.67;6.55;;;;;;;33.74;18.19;98886.13;5108779;28;20027;-52
2022/04/27 09:11:26;;;;;;;9.50;6.18;;;;;;;33.78;17.35;98884.28;5108959;28;20085;-51
2022/04/27 09:14:00;;;;;;;12.13;5.65;;;;;;;33.99;17.02;98891.41;5109225;28;20401;-50
2022/04/27 09:20:46;;;;;;;8.45;5.63;;;;;;;34.32;17.28;98891.03;5108787;28;20028;-50
2022/04/27 09:22:06;;;;;;;8.57;5.40;;;;;;;35.18;16.18;98886.69;5109062;28;20062;-51
2022/04/27 09:24:54;;;;;;;6.30;5.40;;;;;;;34.73;16.47;98888.88;5108571;28;20472;-52
2022/04/27 09:27:21;;;;;;;11.32;5.78;;;;;;;34.72;16.53;98890.00;5108546;28;20093;-52
2022/04/27 09:30:04;;;;;;;10.65;5.63;;;;;;;34.81;16.61;98889.78;5108315;28;20123;-50
2022/04/27 09:32:30;;;;;;;8.63;5.32;;;;;;;34.94;15.98;98887.75;5108523;28;20397;-51
2022/04/27 09:35:00;;;;;;;8.15;5.40;;;;;;;35.22;16.38;98887.56;5108368;28;20020;-52
2022/04/27 09:37:30;;;;;;;9.10;5.53;;;;;;;35.49;16.30;98888.44;5108374;28;20489;-52
2022/04/27 09:40:08;;;;;;;16.35;6.07;;;;;;;35.27;16.82;98889.19;5108334;28;20047;-52
2022/04/27 09:42:41;;;;;;;12.40;5.13;;;;;;;35.38;15.79;98884.72;5094292;28;20024;-52
2022/04/27 09:45:20;;;;;;;16.13;5.80;;;;;;;35.01;16.68;98882.41;5094773;28;20478;-52
2022/04/27 09:48:05;;;;;;;11.45;5.60;;;;;;;34.94;16.73;98890.47;5094642;28;20024;-52
2022/04/27 09:50:52;;;;;;;9.27;5.07;;;;;;;35.11;16.81;98887.28;5093219;28;20094;-51
2022/04/27 09:53:19;;;;;;;27.23;6.40;;;;;;;35.06;15.96;98876.69;5094544;28;20020;-52
2022/04/27 09:55:51;;;;;;;17.42;5.53;;;;;;;35.45;16.11;98873.16;5093225;28;20501;-51
2022/04/27 09:58:19;;;;;;;13.82;5.30;;;;;;;35.58;15.50;98878.06;5094772;28;20047;-52
2022/04/27 10:00:50;;;;;;;20.92;5.22;;;;;;;35.67;15.60;98871.63;5094354;28;20020;-53
2022/04/27 10:03:19;;;;;;;19.88;5.95;;;;;;;35.58;15.83;98871.84;5094344;28;20059;-52
2022/04/27 10:05:45;;;;;;;8.25;4.78;;;;;;;35.44;15.65;98872.38;5094301;28;20028;-52
2022/04/27 10:08:12;;;;;;;15.30;5.22;;;;;;;35.82;15.37;98867.16;5092953;28;20236;-51
2022/04/27 10:10:42;;;;;;;16.60;5.65;;;;;;;35.36;15.34;98870.66;5092832;28;20028;-51
2022/04/27 10:13:13;;;;;;;18.60;4.88;;;;;;;35.22;15.49;98873.91;5094191;28;20032;-52
2022/04/27 10:15:44;;;;;;;8.63;3.53;;;;;;;35.58;14.94;98872.63;5092873;28;20032;-51
2022/04/27 10:18:15;;;;;;;9.82;3.97;;;;;;;35.66;14.33;98870.03;5093129;28;20235;-51
2022/04/27 10:20:41;;;;;;;8.05;4.45;;;;;;;35.35;15.11;98871.78;5094015;28;20440;-52
2022/04/27 10:23:21;;;;;;;9.88;3.40;;;;;;;35.20;15.07;98866.06;5093950;28;20021;-52
2022/04/27 10:26:10;;;;;;;9.75;4.35;;;;;;;35.15;15.03;98873.72;5094279;28;20102;-52
2022/04/27 10:28:38;;;;;;;6.05;3.85;;;;;;;35.19;15.10;98872.69;5093698;28;20059;-51
2022/04/27 10:31:07;;;;;;;13.77;4.90;;;;;;;35.20;15.02;98874.25;5093798;28;20054;-52
2022/04/27 10:33:51;;;;;;;8.07;4.05;;;;;;;35.26;15.15;98863.06;5093779;28;20030;-52
2022/04/27 10:36:43;;;;;;;10.15;4.38;;;;;;;35.46;15.33;98870.06;5092430;28;20077;-51
2022/04/27 10:39:09;;;;;;;19.55;5.40;;;;;;;35.20;14.59;98876.22;5093293;28;20566;-52
2022/04/27 10:41:35;;;;;;;11.52;4.15;;;;;;;35.03;14.87;98871.94;5093857;28;20024;-52
2022/04/27 10:44:01;;;;;;;8.07;3.80;;;;;;;35.01;15.63;98864.13;5093625;28;20020;-52
2022/04/27 10:46:43;;;;;;;16.50;4.97;;;;;;;34.49;16.23;98861.81;5093552;28;20016;-52
2022/04/27 10:49:25;;;;;;;13.30;4.15;;;;;;;34.39;16.15;98866.69;5093738;28;20088;-50
2022/04/27 10:52:03;;;;;;;7.70;4.38;;;;;;;34.53;16.03;98862.69;5093116;28;20023;-52
2022/04/27 10:54:34;;;;;;;25.10;6.10;;;;;;;34.85;16.36;98860.66;5092979;28;20028;-52
2022/04/27 10:57:15;;;;;;;31.00;7.22;;;;;;;35.12;16.01;98863.56;5093434;28;20123;-51
2022/04/27 10:59:48;;;;;;;20.83;6.07;;;;;;;35.25;15.68;98853.28;5093367;28;20085;-52
2022/04/27 11:02:38;;;;;;;20.98;4.88;;;;;;;35.19;15.68;98853.59;5093248;28;20020;-51
2022/04/27 11:05:13;;;;;;;6.60;3.88;;;;;;;35.18;15.56;98852.00;5093239;28;20478;-51
2022/04/27 11:08:10;;;;;;;7.05;4.00;;;;;;;35.26;15.66;98850.19;5093155;28;20020;-51
2022/04/27 11:10:39;;;;;;;9.48;3.60;;;;;;;35.06;15.42;98846.69;5090745;28;20071;-51
2022/04/27 11:13:08;;;;;;;6.65;4.35;;;;;;;34.73;15.71;98842.53;5090833;28;20024;-51
2022/04/27 11:15:34;;;;;;;14.13;4.72;;;;;;;34.57;15.49;98853.47;5090648;28;20043;-52
2022/04/27 11:18:02;;;;;;;11.05;3.90;;;;;;;34.29;15.78;98853.63;5073653;28;20024;-52
2022/04/27 11:20:37;;;;;;;10.13;3.80;;;;;;;34.22;15.79;98850.72;5090564;28;20046;-52
2022/04/27 11:23:07;;;;;;;9.45;3.50;;;;;;;34.14;15.98;98849.75;5090555;28;20031;-52
2022/04/27 11:25:35;;;;;;;6.90;2.70;;;;;;;34.13;15.44;98853.63;5090453;28;20032;-53
2022/04/27 11:28:03;;;;;;;8.90;3.38;;;;;;;34.38;15.07;98846.03;5090399;28;20032;-51
2022/04/27 11:30:31;;;;;;;3.30;2.58;;;;;;;34.18;15.45;98850.63;5090176;28;20048;-51
2022/04/27 11:32:58;;;;;;;6.18;3.10;;;;;;;33.81;15.23;98839.25;5073349;28;20032;-51
2022/04/27 11:35:25;;;;;;;10.20;3.40;;;;;;;33.30;16.17;98845.28;5090451;28;20433;-52
2022/04/27 11:37:55;;;;;;;5.32;3.33;;;;;;;32.81;16.18;98840.81;5090362;28;20156;-51
2022/04/27 11:40:27;;;;;;;8.10;3.28;;;;;;;32.62;16.94;98846.09;5090184;28;20036;-52
2022/04/27 11:42:53;;;;;;;5.85;2.78;;;;;;;32.35;17.05;98842.94;5090382;28;20123;-52
2022/04/27 11:45:22;;;;;;;6.82;2.95;;;;;;;32.01;17.80;98839.56;5090200;28;20107;-52
2022/04/27 11:48:05;;;;;;;5.35;3.00;;;;;;;31.76;17.54;98843.38;5092011;28;20063;-51
2022/04/27 11:50:35;;;;;;;10.48;2.95;;;;;;;32.02;17.82;98833.00;5092232;28;20016;-51
2022/04/27 11:53:06;;;;;;;6.10;3.33;;;;;;;32.49;17.19;98842.56;5074222;28;20028;-52
2022/04/27 11:55:34;;;;;;;9.60;3.50;;;;;;;32.80;17.45;98833.81;5092278;28;20562;-52